Time;durP1;ratioP1;P1;durP2;ratioP2;P2;SDS_P1;SDS_P2;PMS_P1;PMS_P2;Temp;Humidity;BMP_temperature;BMP_pressure;BME280_temperature;BME280_humidity;BME280_pressure;Samples;Min_cycle;Max_cycle;Signal;HPM_P1;HPM_P2
2022/01/26 00:07:15;;;;;;;;;;;-2.60;87.00;;;;;;4995600;28;20147;-79
2022/01/26 00:09:41;;;;;;;;;;;-2.60;87.00;;;;;;4999266;28;19917;-79
2022/01/26 00:12:07;;;;;;;;;;;-2.50;87.30;;;;;;4998893;28;19948;-79
2022/01/26 00:14:34;;;;;;;;;;;-2.50;87.70;;;;;;4998773;28;19984;-79
2022/01/26 00:17:01;;;;;;;;;;;0.10;89.10;;;;;;4998914;28;19910;-79
2022/01/26 00:19:45;;;;;;;;;;;-2.50;87.50;;;;;;5002241;28;20012;-79
2022/01/26 00:22:11;;;;;;;;;;;-2.10;87.60;;;;;;4989515;28;19955;-79
2022/01/26 00:27:24;;;;;;;;;;;-2.60;87.40;;;;;;5000608;28;19910;-79
2022/01/26 00:31:12;;;;;;;;;;;-2.60;87.80;;;;;;4983075;28;19909;-79
2022/01/26 00:41:03;;;;;;;;;;;-2.50;88.20;;;;;;5060951;28;19973;-79
2022/01/26 00:43:29;;;;;;;;;;;-2.40;88.70;;;;;;5061256;28;19966;-79
2022/01/26 00:45:57;;;;;;;;;;;-2.40;88.90;;;;;;5061438;28;19912;-79
2022/01/26 00:48:23;;;;;;;;;;;-2.40;89.00;;;;;;5043195;28;20394;-79
2022/01/26 00:50:51;;;;;;;;;;;-2.40;88.60;;;;;;5043102;28;20001;-78
2022/01/26 00:53:23;;;;;;;;;;;-2.30;89.00;;;;;;5043260;28;20105;-79
2022/01/26 00:55:49;;;;;;;;;;;-2.30;89.30;;;;;;5042859;28;19974;-78
2022/01/26 00:58:15;;;;;;;;;;;-2.30;88.50;;;;;;5043315;28;20281;-79
2022/01/26 01:00:40;;;;;;;;;;;-1.80;88.40;;;;;;5061111;28;19919;-79
2022/01/26 01:03:06;;;;;;;;;;;-2.20;88.20;;;;;;5060934;28;19914;-78
2022/01/26 01:05:37;;;;;;;;;;;-2.20;88.40;;;;;;5061081;28;20185;-78
2022/01/26 01:08:08;;;;;;;;;;;-2.20;88.90;;;;;;5060992;28;20104;-79
2022/01/26 01:10:34;;;;;;;;;;;-2.20;88.80;;;;;;5042741;28;19959;-79
2022/01/26 01:13:00;;;;;;;;;;;-2.30;89.00;;;;;;5042810;28;19990;-79
2022/01/26 01:15:27;;;;;;;;;;;-2.20;88.40;;;;;;5060759;28;19921;-79
2022/01/26 01:18:03;;;;;;;;;;;-2.20;88.20;;;;;;5060479;28;19919;-78
2022/01/26 01:30:48;;;;;;;;;;;-2.10;88.60;;;;;;5060596;28;20433;-79
2022/01/26 01:33:25;;;;;;;;;;;-2.30;89.10;;;;;;5060204;28;20078;-79
2022/01/26 01:35:51;;;;;;;;;;;-1.40;89.90;;;;;;5042271;28;19943;-79
2022/01/26 01:38:19;;;;;;;;;;;-2.80;89.30;;;;;;5060245;28;19909;-79
2022/01/26 01:40:46;;;;;;;;;;;-1.80;89.50;;;;;;5042512;28;19909;-79
2022/01/26 01:43:12;;;;;;;;;;;-2.10;88.70;;;;;;5060400;28;20106;-78
2022/01/26 01:45:44;;;;;;;;;;;-2.10;88.20;;;;;;5060197;28;20004;-78
2022/01/26 01:48:16;;;;;;;;;;;-2.00;88.40;;;;;;5041737;28;20622;-79
2022/01/26 01:50:42;;;;;;;;;;;-1.60;88.20;;;;;;5042220;28;19909;-79
2022/01/26 01:53:09;;;;;;;;;;;-3.30;87.60;;;;;;5060307;28;19938;-79
2022/01/26 01:55:37;;;;;;;;;;;-2.10;87.90;;;;;;5042283;28;19928;-79
2022/01/26 01:58:03;;;;;;;;;;;-2.20;87.20;;;;;;5060243;28;19916;-79
2022/01/26 02:00:28;;;;;;;;;;;-2.20;85.50;;;;;;5060339;28;19913;-78
2022/01/26 02:02:54;;;;;;;;;;;-2.30;83.60;;;;;;5059870;28;19913;-79
2022/01/26 02:05:20;;;;;;;;;;;-2.40;83.50;;;;;;5060213;28;19991;-79
2022/01/26 02:07:47;;;;;;;;;;;-2.20;84.50;;;;;;5060277;28;20196;-79
2022/01/26 02:10:16;;;;;;;;;;;-2.40;85.40;;;;;;5042159;28;20096;-79
2022/01/26 02:12:47;;;;;;;;;;;-2.40;84.30;;;;;;5042000;28;19986;-79
2022/01/26 02:15:24;;;;;;;;;;;-2.40;83.80;;;;;;5060314;28;20022;-79
2022/01/26 02:55:44;;;;;;;;;;;-2.60;83.40;;;;;;5063793;28;19974;-79
2022/01/26 03:04:01;;;;;;;;;;;-2.40;83.60;;;;;;5040244;28;19909;-78
2022/01/26 03:06:35;;;;;;;;;;;-2.40;83.40;;;;;;5040415;28;19952;-79
2022/01/26 03:09:07;;;;;;;;;;;-2.40;83.30;;;;;;5040439;28;20721;-79
2022/01/26 03:11:36;;;;;;;;;;;-1.80;83.30;;;;;;5024239;28;19962;-79
2022/01/26 03:14:12;;;;;;;;;;;-2.40;82.60;;;;;;5042654;28;20318;-78
2022/01/26 03:16:44;;;;;;;;;;;-2.40;82.70;;;;;;5041728;28;20381;-79
2022/01/26 03:21:46;;;;;;;;;;;-1.80;82.90;;;;;;5040695;28;19913;-79
2022/01/26 03:29:54;;;;;;;;;;;-2.30;82.70;;;;;;5040353;28;20266;-79
2022/01/26 03:34:55;;;;;;;;;;;-2.30;83.30;;;;;;5039744;28;20008;-79
2022/01/26 03:37:27;;;;;;;;;;;-0.70;84.50;;;;;;5039619;28;20137;-79
2022/01/26 03:39:53;;;;;;;;;;;-0.60;85.00;;;;;;5047677;28;20101;-78
2022/01/26 03:42:22;;;;;;;;;;;-2.20;83.30;;;;;;5043852;28;19923;-79
2022/01/26 03:44:47;;;;;;;;;;;-2.10;81.90;;;;;;5045014;28;19908;-79
2022/01/26 03:47:13;;;;;;;;;;;-2.10;81.70;;;;;;5062952;28;19908;-79
2022/01/26 03:49:42;;;;;;;;;;;-2.10;81.80;;;;;;5044719;28;20011;-79
2022/01/26 03:52:08;;;;;;;;;;;-2.00;81.20;;;;;;5045173;28;20305;-79
2022/01/26 03:54:34;;;;;;;;;;;-2.00;79.50;;;;;;5062702;28;20379;-78
2022/01/26 03:56:59;;;;;;;;;;;-2.00;80.20;;;;;;5044348;28;19966;-79
2022/01/26 03:59:25;;;;;;;;;;;-2.10;81.70;;;;;;5062541;28;19909;-79
2022/01/26 04:01:51;;;;;;;;;;;-2.00;81.90;;;;;;5061750;28;19951;-79
2022/01/26 04:04:16;;;;;;;;;;;-2.10;81.30;;;;;;5062052;28;20210;-79
2022/01/26 04:06:42;;;;;;;;;;;-2.00;82.40;;;;;;5061984;28;19909;-79
2022/01/26 04:09:10;;;;;;;;;;;-2.00;82.10;;;;;;5044537;28;20105;-79
2022/01/26 04:11:41;;;;;;;;;;;-2.00;82.00;;;;;;5044088;28;20094;-79
2022/01/26 04:14:09;;;;;;;;;;;-2.00;82.40;;;;;;5043351;28;19951;-79
2022/01/26 04:16:35;;;;;;;;;;;-3.40;81.40;;;;;;5060790;28;19922;-79
2022/01/26 04:19:01;;;;;;;;;;;-1.90;82.60;;;;;;5044318;28;19916;-79
2022/01/26 04:24:10;;;;;;;;;;;-1.80;83.10;;;;;;5062219;28;19962;-78
2022/01/26 04:26:52;;;;;;;;;;;-1.90;82.40;;;;;;5044274;28;20548;-79
2022/01/26 04:29:35;;;;;;;;;;;-1.80;83.20;;;;;;5044115;28;19935;-79
2022/01/26 04:32:04;;;;;;;;;;;-1.80;83.00;;;;;;5062403;28;19934;-79
2022/01/26 04:34:33;;;;;;;;;;;-1.80;82.80;;;;;;5062411;28;20062;-79
2022/01/26 04:37:13;;;;;;;;;;;-1.80;83.40;;;;;;5044491;28;20015;-78
2022/01/26 04:39:46;;;;;;;;;;;-1.50;83.70;;;;;;5044009;28;19970;-79
2022/01/26 04:42:17;;;;;;;;;;;-1.80;83.40;;;;;;5044541;28;19908;-80
2022/01/26 04:44:54;;;;;;;;;;;-1.40;84.00;;;;;;5062552;28;20366;-79
2022/01/26 04:47:19;;;;;;;;;;;-1.90;84.40;;;;;;5039953;28;20269;-79
2022/01/26 04:49:48;;;;;;;;;;;-1.80;84.60;;;;;;5039383;28;19909;-78
2022/01/26 04:52:13;;;;;;;;;;;-1.80;84.30;;;;;;5038824;28;19920;-79
2022/01/26 04:54:39;;;;;;;;;;;-1.90;84.20;;;;;;5038838;28;20140;-79
2022/01/26 04:57:05;;;;;;;;;;;-1.90;84.70;;;;;;5043325;28;20196;-79
2022/01/26 04:59:31;;;;;;;;;;;-1.90;84.60;;;;;;5042941;28;19948;-78
2022/01/26 05:01:56;;;;;;;;;;;-1.80;84.90;;;;;;5039838;28;19909;-80
2022/01/26 05:04:22;;;;;;;;;;;-1.90;84.40;;;;;;5026097;28;19912;-78
2022/01/26 05:06:47;;;;;;;;;;;-2.10;84.50;;;;;;5048420;28;20003;-79
2022/01/26 05:09:13;;;;;;;;;;;-1.90;85.40;;;;;;5051470;28;19909;-79
2022/01/26 05:11:42;;;;;;;;;;;-1.80;85.90;;;;;;5051791;28;19917;-79
2022/01/26 05:14:08;;;;;;;;;;;-1.80;85.90;;;;;;5051517;28;19960;-79
2022/01/26 05:16:40;;;;;;;;;;;-1.80;86.10;;;;;;5049724;28;19912;-78
2022/01/26 05:19:06;;;;;;;;;;;-0.60;86.80;;;;;;5049369;28;20439;-79
2022/01/26 05:21:32;;;;;;;;;;;-1.70;87.30;;;;;;5046931;28;19996;-78
2022/01/26 05:23:57;;;;;;;;;;;-1.70;87.00;;;;;;5041205;28;20012;-79
2022/01/26 05:26:23;;;;;;;;;;;-1.70;87.00;;;;;;5040175;28;20023;-79
2022/01/26 05:28:49;;;;;;;;;;;-1.70;86.60;;;;;;5039428;28;20242;-79
2022/01/26 05:31:15;;;;;;;;;;;-1.70;86.30;;;;;;5038736;28;19913;-79
2022/01/26 05:33:41;;;;;;;;;;;-1.70;85.60;;;;;;5038915;28;20319;-79
2022/01/26 05:36:07;;;;;;;;;;;-1.70;85.10;;;;;;5038526;28;19917;-78
2022/01/26 05:38:32;;;;;;;;;;;-1.70;85.40;;;;;;5043074;28;20394;-78
2022/01/26 05:41:02;;;;;;;;;;;-0.20;86.90;;;;;;5061298;28;19908;-79
2022/01/26 05:43:34;;;;;;;;;;;-1.70;86.00;;;;;;5060601;28;20231;-79
2022/01/26 05:46:08;;;;;;;;;;;-1.80;85.90;;;;;;5060008;28;20382;-79
2022/01/26 05:48:37;;;;;;;;;;;-1.80;85.90;;;;;;5060482;28;20020;-79
2022/01/26 05:51:07;;;;;;;;;;;-1.80;85.60;;;;;;5041857;28;19909;-79
2022/01/26 05:53:34;;;;;;;;;;;-2.00;86.00;;;;;;5060214;28;20181;-78
2022/01/26 05:56:00;;;;;;;;;;;-2.00;85.90;;;;;;5059452;28;19943;-79
2022/01/26 05:58:25;;;;;;;;;;;-2.00;86.40;;;;;;5042035;28;20653;-79
2022/01/26 06:00:51;;;;;;;;;;;-0.60;87.10;;;;;;5060032;28;20303;-79
2022/01/26 06:03:17;;;;;;;;;;;-2.10;87.10;;;;;;5060213;28;19962;-79
2022/01/26 06:05:42;;;;;;;;;;;-1.90;86.80;;;;;;5059874;28;20003;-79
2022/01/26 06:08:08;;;;;;;;;;;-1.10;88.00;;;;;;5042107;28;19913;-79
2022/01/26 06:10:34;;;;;;;;;;;-2.30;87.20;;;;;;5042345;28;20337;-79
2022/01/26 06:12:59;;;;;;;;;;;-2.30;87.00;;;;;;5061157;28;20097;-79
2022/01/26 06:15:25;;;;;;;;;;;-2.30;87.20;;;;;;5038664;28;19921;-79
2022/01/26 06:17:52;;;;;;;;;;;-2.40;87.40;;;;;;5021837;28;22207;-79
2022/01/26 06:20:18;;;;;;;;;;;-2.40;87.80;;;;;;5040625;28;19909;-79
2022/01/26 06:22:44;;;;;;;;;;;-2.30;87.70;;;;;;5038442;28;19909;-79
2022/01/26 06:25:09;;;;;;;;;;;-2.20;87.60;;;;;;5040940;28;20563;-79
2022/01/26 06:27:36;;;;;;;;;;;-2.10;87.30;;;;;;5041823;28;20006;-79
2022/01/26 06:30:03;;;;;;;;;;;-2.10;87.20;;;;;;5040674;28;19935;-79
2022/01/26 06:32:29;;;;;;;;;;;-2.10;86.90;;;;;;5041180;28;19920;-79
2022/01/26 06:34:55;;;;;;;;;;;-2.00;87.00;;;;;;5038628;28;19917;-79
2022/01/26 06:37:21;;;;;;;;;;;-2.10;87.00;;;;;;5040142;28;20352;-79
2022/01/26 06:39:47;;;;;;;;;;;-2.10;86.90;;;;;;5038647;28;19956;-79
2022/01/26 06:42:15;;;;;;;;;;;-2.10;87.10;;;;;;5037928;28;19909;-79
2022/01/26 06:44:52;;;;;;;;;;;-2.00;87.70;;;;;;5037961;28;20057;-79
2022/01/26 06:49:53;;;;;;;;;;;-2.10;87.90;;;;;;5039235;28;19966;-78
2022/01/26 06:52:19;;;;;;;;;;;-2.10;88.20;;;;;;5037701;28;19912;-78
2022/01/26 06:54:44;;;;;;;;;;;-2.10;88.30;;;;;;5037161;28;19988;-79
2022/01/26 06:57:10;;;;;;;;;;;-2.00;88.50;;;;;;5038658;28;20004;-78
2022/01/26 06:59:35;;;;;;;;;;;-2.00;88.30;;;;;;5037629;28;20228;-79
2022/01/26 07:02:01;;;;;;;;;;;-0.80;89.20;;;;;;5037773;28;19909;-79
2022/01/26 07:04:27;;;;;;;;;;;-2.00;88.60;;;;;;5039037;28;20396;-79
2022/01/26 07:06:52;;;;;;;;;;;-2.10;88.90;;;;;;5038901;28;20059;-78
2022/01/26 07:09:19;;;;;;;;;;;-2.10;88.80;;;;;;5037697;28;19919;-79
2022/01/26 07:11:45;;;;;;;;;;;-2.10;88.80;;;;;;5038748;28;19909;-79
2022/01/26 07:14:17;;;;;;;;;;;-0.80;89.50;;;;;;5048120;28;19981;-79
2022/01/26 07:19:53;;;;;;;;;;;-1.90;88.80;;;;;;5064017;28;19919;-78
2022/01/26 07:22:12;;;;;;;;;;;-1.90;88.20;;;;;;5062604;28;19908;-79
2022/01/26 07:24:37;;;;;;;;;;;-1.90;88.70;;;;;;5062150;28;19982;-78
2022/01/26 07:27:03;;;;;;;;;;;-1.80;88.30;;;;;;5044259;28;19917;-79
2022/01/26 07:29:29;;;;;;;;;;;-1.90;88.20;;;;;;5062521;28;19948;-79
2022/01/26 07:31:54;;;;;;;;;;;-1.80;88.10;;;;;;5062503;28;19973;-79
2022/01/26 07:34:22;;;;;;;;;;;-1.80;87.80;;;;;;5062319;28;19908;-79
2022/01/26 07:36:51;;;;;;;;;;;-1.80;87.80;;;;;;5062007;28;19951;-78
2022/01/26 07:39:28;;;;;;;;;;;-1.70;86.60;;;;;;5062058;28;19935;-79
2022/01/26 07:41:54;;;;;;;;;;;-0.20;87.60;;;;;;5044099;28;19908;-79
2022/01/26 07:44:19;;;;;;;;;;;-1.50;87.00;;;;;;5062515;28;19966;-79
2022/01/26 07:46:45;;;;;;;;;;;-0.80;86.50;;;;;;5062444;28;20355;-79
2022/01/26 07:49:10;;;;;;;;;;;-1.60;86.00;;;;;;5054631;28;19909;-78
2022/01/26 07:51:36;;;;;;;;;;;-1.60;85.90;;;;;;5078283;28;19995;-79
2022/01/26 07:54:02;;;;;;;;;;;0.80;87.10;;;;;;5078425;28;19909;-78
2022/01/26 07:56:29;;;;;;;;;;;-1.50;85.20;;;;;;5076119;28;20249;-79
2022/01/26 07:58:54;;;;;;;;;;;-0.90;85.10;;;;;;5046563;28;20327;-79
2022/01/26 08:01:21;;;;;;;;;;;-1.40;85.00;;;;;;5045750;28;19916;-79
2022/01/26 08:03:47;;;;;;;;;;;-1.30;85.20;;;;;;5062727;28;19919;-79
2022/01/26 08:06:17;;;;;;;;;;;-1.20;85.20;;;;;;5061841;28;19908;-79
2022/01/26 08:08:42;;;;;;;;;;;-1.20;84.80;;;;;;5043500;28;19916;-79
2022/01/26 08:11:08;;;;;;;;;;;-1.10;84.80;;;;;;5061482;28;19943;-79
2022/01/26 08:13:33;;;;;;;;;;;-1.10;85.00;;;;;;5061546;28;20240;-79
2022/01/26 08:16:00;;;;;;;;;;;0.90;86.40;;;;;;5039743;28;20015;-79
2022/01/26 08:18:26;;;;;;;;;;;-1.00;85.10;;;;;;5040137;28;19920;-79
2022/01/26 08:20:52;;;;;;;;;;;-0.90;85.40;;;;;;5041325;28;19912;-79
2022/01/26 08:23:20;;;;;;;;;;;-0.90;85.80;;;;;;5041398;28;19913;-79
2022/01/26 08:25:45;;;;;;;;;;;-0.80;84.10;;;;;;5041274;28;19909;-79
2022/01/26 08:28:21;;;;;;;;;;;-0.80;83.90;;;;;;5039338;28;19917;-79
2022/01/26 08:30:47;;;;;;;;;;;-0.90;83.90;;;;;;5039397;28;19909;-79
2022/01/26 08:33:12;;;;;;;;;;;0.60;85.00;;;;;;5040823;28;19916;-79
2022/01/26 08:35:38;;;;;;;;;;;-0.80;84.00;;;;;;5039708;28;19924;-80
2022/01/26 08:38:03;;;;;;;;;;;-0.10;84.70;;;;;;5040740;28;20119;-79
2022/01/26 08:40:30;;;;;;;;;;;-0.70;84.70;;;;;;5040986;28;20126;-79
2022/01/26 08:42:56;;;;;;;;;;;0.90;85.80;;;;;;5039525;28;19940;-79
2022/01/26 08:45:21;;;;;;;;;;;-0.60;85.80;;;;;;5040642;28;19978;-79
2022/01/26 08:47:49;;;;;;;;;;;-0.60;84.70;;;;;;5039062;28;20366;-79
2022/01/26 08:50:17;;;;;;;;;;;-0.50;84.10;;;;;;5039499;28;19909;-79
2022/01/26 08:52:42;;;;;;;;;;;-0.50;83.70;;;;;;5039624;28;19909;-78
2022/01/26 08:55:10;;;;;;;;;;;-0.50;84.00;;;;;;5039108;28;20131;-79
2022/01/26 08:57:36;;;;;;;;;;;-0.40;84.20;;;;;;5039392;28;20466;-79
2022/01/26 09:00:05;;;;;;;;;;;-0.40;84.30;;;;;;5040620;28;20455;-79
2022/01/26 09:02:30;;;;;;;;;;;-0.40;84.20;;;;;;5039543;28;20248;-79
2022/01/26 09:04:56;;;;;;;;;;;-0.30;84.90;;;;;;5038677;28;19952;-79
2022/01/26 09:07:21;;;;;;;;;;;-0.20;84.40;;;;;;5040274;28;19916;-79
2022/01/26 09:09:47;;;;;;;;;;;-0.20;84.10;;;;;;5040309;28;19909;-79
2022/01/26 09:12:14;;;;;;;;;;;-0.10;83.90;;;;;;5040420;28;19908;-78
2022/01/26 09:14:41;;;;;;;;;;;0.00;83.10;;;;;;5038275;28;19920;-79
2022/01/26 09:17:07;;;;;;;;;;;0.00;83.40;;;;;;5038489;28;19935;-78
2022/01/26 09:19:34;;;;;;;;;;;0.10;83.00;;;;;;5040042;28;20342;-79
2022/01/26 09:22:00;;;;;;;;;;;0.10;82.30;;;;;;5038196;28;19916;-79
2022/01/26 09:24:27;;;;;;;;;;;0.20;81.50;;;;;;5038457;28;19952;-79
2022/01/26 09:26:53;;;;;;;;;;;0.30;82.20;;;;;;5039605;28;19913;-79
2022/01/26 09:29:18;;;;;;;;;;;0.20;83.00;;;;;;5039882;28;19967;-79
2022/01/26 09:31:47;;;;;;;;;;;0.30;83.10;;;;;;5039989;28;20177;-79
2022/01/26 09:34:16;;;;;;;;;;;0.30;82.60;;;;;;5046559;28;19916;-79
2022/01/26 09:36:41;;;;;;;;;;;0.30;82.30;;;;;;5042839;28;19909;-78
2022/01/26 09:39:07;;;;;;;;;;;0.30;82.10;;;;;;5040199;28;20203;-79
2022/01/26 09:41:34;;;;;;;;;;;0.40;80.50;;;;;;5038870;28;20093;-79
2022/01/26 09:44:02;;;;;;;;;;;0.30;80.00;;;;;;5040245;28;20312;-78
2022/01/26 09:46:28;;;;;;;;;;;0.30;80.40;;;;;;5038238;28;19917;-78
2022/01/26 09:48:54;;;;;;;;;;;0.30;80.40;;;;;;5039857;28;20360;-79
2022/01/26 09:51:20;;;;;;;;;;;0.30;80.60;;;;;;5038146;28;19909;-79
2022/01/26 09:53:57;;;;;;;;;;;0.80;80.40;;;;;;5039216;28;20003;-79
2022/01/26 09:56:22;;;;;;;;;;;0.10;80.60;;;;;;5039080;28;19921;-79
2022/01/26 09:58:50;;;;;;;;;;;0.10;81.40;;;;;;5037598;28;20410;-78
2022/01/26 10:01:15;;;;;;;;;;;0.00;82.20;;;;;;5037640;28;19962;-79
2022/01/26 10:03:43;;;;;;;;;;;0.00;83.30;;;;;;5039237;28;19908;-79
2022/01/26 10:06:18;;;;;;;;;;;0.10;82.80;;;;;;5039116;28;20349;-79
2022/01/26 10:17:18;;;;;;;;;;;0.20;81.30;;;;;;5019138;28;19995;-79
2022/01/26 10:19:24;;;;;;;;;;;0.20;81.40;;;;;;5019277;28;20004;-79
2022/01/26 10:21:51;;;;;;;;;;;0.30;81.00;;;;;;5019316;28;20331;-79
2022/01/26 10:24:18;;;;;;;;;;;1.00;81.10;;;;;;5019296;28;19909;-79
2022/01/26 10:26:49;;;;;;;;;;;0.40;81.00;;;;;;5018341;28;19928;-79
2022/01/26 10:29:15;;;;;;;;;;;0.50;81.20;;;;;;5018031;28;19909;-79
2022/01/26 10:31:41;;;;;;;;;;;0.50;81.00;;;;;;5018273;28;20360;-79
2022/01/26 10:34:11;;;;;;;;;;;0.70;81.30;;;;;;5019820;28;19913;-79
2022/01/26 10:36:41;;;;;;;;;;;0.60;81.20;;;;;;5032386;28;19927;-78
2022/01/26 10:39:08;;;;;;;;;;;0.60;81.10;;;;;;5030736;28;20213;-78
2022/01/26 10:41:38;;;;;;;;;;;0.70;81.30;;;;;;5030940;28;20400;-79
2022/01/26 10:44:05;;;;;;;;;;;0.60;81.20;;;;;;5025681;28;19928;-79
2022/01/26 10:46:34;;;;;;;;;;;0.70;80.90;;;;;;5020017;28;20563;-79
2022/01/26 10:49:15;;;;;;;;;;;0.70;81.20;;;;;;5020621;28;19996;-79
2022/01/26 10:54:36;;;;;;;;;;;0.90;81.40;;;;;;5022905;28;19956;-79
2022/01/26 10:57:03;;;;;;;;;;;0.80;81.20;;;;;;5023419;28;19932;-79
2022/01/26 10:59:29;;;;;;;;;;;0.80;80.80;;;;;;5021604;28;20089;-79
2022/01/26 11:01:59;;;;;;;;;;;3.20;82.30;;;;;;5022955;28;19967;-79
2022/01/26 11:04:25;;;;;;;;;;;1.10;81.30;;;;;;5021768;28;19909;-79
2022/01/26 11:06:51;;;;;;;;;;;1.00;81.10;;;;;;5022971;28;20519;-78
2022/01/26 11:09:20;;;;;;;;;;;0.90;80.90;;;;;;5021761;28;20296;-79
2022/01/26 11:11:46;;;;;;;;;;;2.80;82.00;;;;;;5021624;28;20163;-79
2022/01/26 11:14:24;;;;;;;;;;;1.00;80.90;;;;;;5030328;28;19995;-79
2022/01/26 11:16:51;;;;;;;;;;;-0.50;80.50;;;;;;5062154;28;19924;-79
2022/01/26 11:19:16;;;;;;;;;;;1.10;81.20;;;;;;5044234;28;19970;-79
2022/01/26 11:21:43;;;;;;;;;;;1.10;81.30;;;;;;5044458;28;19982;-79
2022/01/26 11:24:11;;;;;;;;;;;1.10;80.90;;;;;;5062241;28;19909;-79
2022/01/26 11:26:38;;;;;;;;;;;1.10;81.00;;;;;;5062506;28;20406;-79
2022/01/26 11:29:14;;;;;;;;;;;1.20;81.50;;;;;;5044740;28;19935;-79
2022/01/26 11:31:41;;;;;;;;;;;1.10;81.50;;;;;;5062555;28;19919;-79
2022/01/26 11:34:07;;;;;;;;;;;1.10;80.70;;;;;;5062375;28;19931;-79
2022/01/26 11:36:33;;;;;;;;;;;1.20;80.20;;;;;;5044564;28;20028;-79
2022/01/26 11:47:10;;;;;;;;;;;1.10;81.30;;;;;;5063039;28;19915;-79
2022/01/26 11:49:36;;;;;;;;;;;1.20;81.00;;;;;;5067087;28;20130;-79
2022/01/26 11:52:03;;;;;;;;;;;1.20;80.90;;;;;;5068160;28;20102;-79
2022/01/26 11:54:40;;;;;;;;;;;1.20;81.20;;;;;;5063531;28;19913;-79
2022/01/26 11:57:11;;;;;;;;;;;1.10;81.80;;;;;;5044616;28;19946;-79
2022/01/26 11:59:44;;;;;;;;;;;1.10;81.30;;;;;;5062115;28;20015;-79
2022/01/26 12:02:21;;;;;;;;;;;1.10;81.50;;;;;;5062442;28;19912;-79
2022/01/26 12:04:56;;;;;;;;;;;1.10;81.70;;;;;;5061561;28;19947;-79
2022/01/26 12:07:23;;;;;;;;;;;1.20;81.80;;;;;;5043882;28;19998;-79
2022/01/26 12:09:49;;;;;;;;;;;1.20;81.90;;;;;;5061795;28;19970;-80
2022/01/26 12:12:19;;;;;;;;;;;1.20;82.00;;;;;;5061736;28;19909;-79
2022/01/26 12:15:02;;;;;;;;;;;1.30;81.50;;;;;;5043121;28;20011;-79
2022/01/26 12:17:32;;;;;;;;;;;1.30;81.50;;;;;;5061553;28;19948;-79
2022/01/26 12:31:57;;;;;;;;;;;1.30;81.80;;;;;;5061706;28;19909;-79
2022/01/26 12:34:33;;;;;;;;;;;1.40;82.70;;;;;;5061011;28;20167;-79
2022/01/26 12:41:13;;;;;;;;;;;1.50;82.10;;;;;;5060899;28;20192;-78
2022/01/26 12:42:13;;;;;;;;;;;-0.30;81.00;;;;;;5061098;28;19944;-79
2022/01/26 12:44:39;;;;;;;;;;;1.60;82.20;;;;;;5043621;28;19915;-79
2022/01/26 12:47:05;;;;;;;;;;;1.60;82.70;;;;;;5043249;28;19913;-79
2022/01/26 12:49:31;;;;;;;;;;;1.60;82.90;;;;;;5061699;28;19948;-80
2022/01/26 12:51:56;;;;;;;;;;;1.60;82.90;;;;;;5061022;28;20210;-80
2022/01/26 12:54:22;;;;;;;;;;;1.60;83.10;;;;;;5061534;28;19977;-80
2022/01/26 12:56:48;;;;;;;;;;;1.60;83.40;;;;;;5061108;28;20093;-80
2022/01/26 12:59:20;;;;;;;;;;;1.70;83.50;;;;;;5043408;28;19916;-80
2022/01/26 13:01:46;;;;;;;;;;;1.70;84.20;;;;;;5061279;28;19957;-79
2022/01/26 13:04:12;;;;;;;;;;;1.70;84.60;;;;;;5062015;28;19909;-79
2022/01/26 13:06:45;;;;;;;;;;;2.70;84.70;;;;;;5061365;28;19909;-79
2022/01/26 13:09:18;;;;;;;;;;;1.80;84.20;;;;;;5061360;28;19939;-79
2022/01/26 13:11:45;;;;;;;;;;;1.70;84.30;;;;;;5042663;28;19908;-79
2022/01/26 13:14:24;;;;;;;;;;;1.80;84.60;;;;;;5062737;28;19963;-79
2022/01/26 13:19:52;;;;;;;;;;;1.80;85.00;;;;;;5063084;28;20461;-79
2022/01/26 13:25:46;;;;;;;;;;;1.90;85.60;;;;;;5073030;28;19923;-79
2022/01/26 13:41:52;;;;;;;;;;;1.80;85.40;;;;;;5019579;28;19913;-79
2022/01/26 13:49:30;;;;;;;;;;;1.70;87.00;;;;;;5018742;28;20159;-79
2022/01/26 13:53:02;;;;;;;;;;;1.70;87.30;;;;;;5018844;28;19917;-79
2022/01/26 13:57:44;;;;;;;;;;;1.70;87.60;;;;;;5018124;28;20432;-79
2022/01/26 14:00:11;;;;;;;;;;;1.80;88.30;;;;;;5017156;28;19917;-79
2022/01/26 14:02:38;;;;;;;;;;;1.80;88.60;;;;;;5017415;28;20472;-79
2022/01/26 14:05:04;;;;;;;;;;;1.80;88.60;;;;;;5000818;28;19909;-79
2022/01/26 14:07:30;;;;;;;;;;;1.80;88.50;;;;;;5033750;28;20104;-79
2022/01/26 14:09:55;;;;;;;;;;;1.80;88.60;;;;;;5067268;28;19909;-80
2022/01/26 14:12:26;;;;;;;;;;;2.30;89.00;;;;;;5044849;28;19912;-79
2022/01/26 14:14:55;;;;;;;;;;;1.90;89.30;;;;;;5061221;28;19926;-79
2022/01/26 14:17:35;;;;;;;;;;;1.80;89.60;;;;;;5042386;28;19981;-79
2022/01/26 14:27:23;;;;;;;;;;;1.80;89.20;;;;;;5059760;28;20018;-79
2022/01/26 14:30:01;;;;;;;;;;;1.80;89.40;;;;;;5041736;28;19913;-79
2022/01/26 14:35:26;;;;;;;;;;;4.00;90.50;;;;;;5059870;28;19917;-79
2022/01/26 15:11:10;;;;;;;;;;;1.40;90.80;;;;;;5035852;28;19954;-79
2022/01/26 15:42:50;;;;;;;;;;;1.30;91.90;;;;;;5062089;28;19920;-79
2022/01/26 15:48:43;;;;;;;;;;;1.10;92.30;;;;;;5059448;28;19916;-79
2022/01/26 15:50:45;;;;;;;;;;;1.10;92.40;;;;;;5061785;28;20627;-79
2022/01/26 17:02:54;;;;;;;;;;;0.70;93.00;;;;;;5062971;28;20314;-79
2022/01/26 18:16:24;;;;;;;;;;;0.80;93.60;;;;;;5016539;28;19947;-79
2022/01/26 18:26:40;;;;;;;;;;;0.90;94.10;;;;;;5017093;28;20036;-79
2022/01/26 18:32:11;;;;;;;;;;;0.80;93.90;;;;;;5017147;28;20287;-79
2022/01/26 18:50:48;;;;;;;;;;;0.60;95.30;;;;;;5063469;28;19915;-79
2022/01/26 18:53:13;;;;;;;;;;;0.60;95.30;;;;;;5065344;28;19909;-78
2022/01/26 18:55:47;;;;;;;;;;;0.60;95.30;;;;;;5067579;28;19920;-79
2022/01/26 18:58:13;;;;;;;;;;;0.60;95.50;;;;;;5051155;28;19912;-79
2022/01/26 19:00:43;;;;;;;;;;;0.60;95.40;;;;;;5063820;28;19915;-79
2022/01/26 19:03:09;;;;;;;;;;;0.60;95.30;;;;;;5061325;28;19931;-79
2022/01/26 19:05:34;;;;;;;;;;;0.70;95.20;;;;;;5059748;28;19908;-79
2022/01/26 19:08:00;;;;;;;;;;;2.50;95.70;;;;;;5041047;28;20402;-79
2022/01/26 19:10:27;;;;;;;;;;;0.60;95.20;;;;;;5059055;28;20418;-79
2022/01/26 19:12:52;;;;;;;;;;;0.70;95.10;;;;;;5059777;28;20181;-79
2022/01/26 19:15:22;;;;;;;;;;;0.70;95.10;;;;;;5062421;28;20186;-79
2022/01/26 19:17:54;;;;;;;;;;;0.70;95.10;;;;;;5044610;28;20000;-79
2022/01/26 19:23:07;;;;;;;;;;;0.70;95.10;;;;;;5062551;28;20290;-79
2022/01/26 19:25:47;;;;;;;;;;;0.70;95.30;;;;;;5062509;28;19999;-79
2022/01/26 19:28:28;;;;;;;;;;;0.60;95.60;;;;;;5062604;28;20359;-79
2022/01/26 19:52:09;;;;;;;;;;;0.50;96.10;;;;;;5062492;28;20314;-79
2022/01/26 19:54:35;;;;;;;;;;;0.50;96.10;;;;;;5043890;28;19921;-79
2022/01/26 19:57:02;;;;;;;;;;;0.50;96.00;;;;;;5061841;28;19912;-79
2022/01/26 19:59:27;;;;;;;;;;;0.50;95.90;;;;;;5043953;28;19931;-78
2022/01/26 20:01:53;;;;;;;;;;;0.50;95.90;;;;;;5043956;28;20595;-79
2022/01/26 20:04:18;;;;;;;;;;;0.50;95.90;;;;;;5043926;28;20406;-79
2022/01/26 20:06:44;;;;;;;;;;;0.40;95.90;;;;;;5062056;28;19940;-79
2022/01/26 20:09:34;;;;;;;;;;;0.40;96.10;;;;;;5043763;28;20137;-78
2022/01/26 20:12:03;;;;;;;;;;;0.40;96.30;;;;;;5061637;28;19959;-78
2022/01/26 20:14:32;;;;;;;;;;;0.40;96.30;;;;;;5044192;28;20504;-78
2022/01/26 20:16:59;;;;;;;;;;;0.40;96.30;;;;;;5061816;28;20105;-79
2022/01/26 20:19:25;;;;;;;;;;;0.90;96.40;;;;;;5044349;28;20227;-79
2022/01/26 20:21:50;;;;;;;;;;;0.50;96.30;;;;;;5043561;28;19912;-79
2022/01/26 20:24:16;;;;;;;;;;;1.30;96.40;;;;;;5043373;28;20121;-79
2022/01/26 20:26:43;;;;;;;;;;;0.50;96.20;;;;;;5043959;28;19961;-80
2022/01/26 20:29:08;;;;;;;;;;;0.40;96.30;;;;;;5061820;28;19909;-79
2022/01/26 20:31:34;;;;;;;;;;;0.40;96.30;;;;;;5062245;28;20291;-79
2022/01/26 20:33:59;;;;;;;;;;;0.90;96.40;;;;;;5062642;28;19951;-79
2022/01/26 20:36:29;;;;;;;;;;;0.40;96.40;;;;;;5062590;28;20249;-79
2022/01/26 20:38:55;;;;;;;;;;;0.30;96.40;;;;;;5062610;28;19970;-79
2022/01/26 20:41:21;;;;;;;;;;;0.30;96.40;;;;;;5062614;28;19908;-79
2022/01/26 20:43:46;;;;;;;;;;;0.30;96.30;;;;;;5044021;28;20235;-79
2022/01/26 20:46:12;;;;;;;;;;;0.30;96.50;;;;;;5045064;28;19917;-79
2022/01/26 20:48:38;;;;;;;;;;;0.20;96.80;;;;;;5047624;28;19920;-79
2022/01/26 20:51:03;;;;;;;;;;;0.10;96.90;;;;;;5063255;28;19908;-79
2022/01/26 20:53:29;;;;;;;;;;;0.20;96.90;;;;;;5046471;28;20478;-79
2022/01/26 20:55:55;;;;;;;;;;;0.00;96.80;;;;;;5068222;28;20524;-79
2022/01/26 20:58:20;;;;;;;;;;;0.00;96.90;;;;;;5070584;28;19920;-79
2022/01/26 21:00:46;;;;;;;;;;;-0.10;96.90;;;;;;5058616;28;19912;-78
2022/01/26 21:03:13;;;;;;;;;;;-0.20;97.10;;;;;;5059964;28;19913;-77
2022/01/26 21:05:39;;;;;;;;;;;-0.20;97.30;;;;;;5049198;28;20007;-78
2022/01/26 21:08:05;;;;;;;;;;;-0.30;97.50;;;;;;5047098;28;20401;-78
2022/01/26 21:10:31;;;;;;;;;;;0.20;97.70;;;;;;5063056;28;19908;-79
2022/01/26 21:12:56;;;;;;;;;;;-0.10;97.50;;;;;;5062054;28;20039;-79
2022/01/26 21:15:23;;;;;;;;;;;0.80;97.80;;;;;;5061571;28;19936;-79
2022/01/26 21:17:49;;;;;;;;;;;2.60;98.60;;;;;;5043576;28;19999;-79
2022/01/26 21:20:16;;;;;;;;;;;1.50;98.30;;;;;;5042955;28;19909;-79
2022/01/26 21:22:45;;;;;;;;;;;-0.40;97.70;;;;;;5060212;28;19909;-79
2022/01/26 21:25:11;;;;;;;;;;;-0.40;97.80;;;;;;5041956;28;20204;-79
2022/01/26 21:27:37;;;;;;;;;;;-0.40;97.70;;;;;;5042098;28;20193;-79